Time;durP1;ratioP1;P1;durP2;ratioP2;P2;SDS_P1;SDS_P2;PMS_P1;PMS_P2;Temp;Humidity;BMP_temperature;BMP_pressure;BME280_temperature;BME280_humidity;BME280_pressure;Samples;Min_cycle;Max_cycle;Signal;HPM_P1;HPM_P2
2023/10/10 03:31:42;;;;;;;5.82;3.20;;;11.70;99.90;;;;;;5501376;23;20509;-93
2023/10/10 03:34:19;;;;;;;4.90;2.70;;;11.70;99.90;;;;;;4975598;28;20295;-94
2023/10/10 03:37:04;;;;;;;3.95;2.72;;;11.60;99.90;;;;;;4982916;28;20210;-94
2023/10/10 03:39:42;;;;;;;7.95;2.85;;;11.60;99.90;;;;;;4982857;28;20220;-93
2023/10/10 05:24:27;;;;;;;5.10;2.83;;;10.90;99.90;;;;;;4954031;29;20239;-68
2023/10/10 05:26:56;;;;;;;5.93;4.22;;;10.80;99.90;;;;;;4953310;29;20208;-70
2023/10/10 05:29:24;;;;;;;5.60;3.30;;;10.80;99.90;;;;;;4954047;29;20235;-69
2023/10/10 05:31:51;;;;;;;7.47;4.18;;;10.80;99.90;;;;;;4953929;29;20233;-70
2023/10/10 05:34:20;;;;;;;7.57;3.80;;;10.70;99.90;;;;;;4953858;29;20740;-70
2023/10/10 05:36:48;;;;;;;5.68;3.10;;;10.70;99.90;;;;;;4953310;29;20772;-67
2023/10/10 05:39:20;;;;;;;5.65;3.05;;;10.70;99.90;;;;;;4953865;29;20287;-68
2023/10/10 05:41:47;;;;;;;4.20;2.90;;;10.70;99.90;;;;;;4953443;29;20235;-68
2023/10/10 05:44:16;;;;;;;6.10;3.08;;;10.70;99.90;;;;;;4953672;29;20216;-67
2023/10/10 05:46:45;;;;;;;5.85;3.47;;;10.60;99.90;;;;;;4952769;28;20219;-66
2023/10/10 05:49:12;;;;;;;4.95;3.45;;;10.60;99.90;;;;;;4953589;29;20209;-67
2023/10/10 05:51:40;;;;;;;7.50;3.08;;;10.60;99.90;;;;;;4953629;29;20220;-70
2023/10/10 05:54:10;;;;;;;3.97;3.03;;;10.60;99.90;;;;;;4951558;29;20633;-70
2023/10/10 05:56:37;;;;;;;5.75;2.97;;;10.60;99.90;;;;;;4952960;29;20649;-70
2023/10/10 05:59:04;;;;;;;9.55;3.47;;;10.60;99.90;;;;;;4953277;29;20205;-71
2023/10/10 06:01:35;;;;;;;8.52;4.55;;;10.60;99.90;;;;;;4953436;29;20229;-70
2023/10/10 06:04:02;;;;;;;9.55;3.75;;;10.60;99.90;;;;;;4953133;29;20279;-71
2023/10/10 06:06:31;;;;;;;6.68;3.00;;;10.60;99.90;;;;;;4952994;29;20224;-70
2023/10/10 06:09:01;;;;;;;4.07;3.10;;;10.60;99.90;;;;;;4952953;29;20616;-70
2023/10/10 06:11:29;;;;;;;7.28;3.33;;;10.60;99.90;;;;;;4953801;29;20228;-70
2023/10/10 06:13:56;;;;;;;6.10;3.13;;;10.60;99.90;;;;;;4953313;29;20244;-67
2023/10/10 06:16:23;;;;;;;6.93;3.90;;;10.70;99.90;;;;;;4953362;28;20581;-66
2023/10/10 06:18:51;;;;;;;12.85;3.58;;;10.70;99.90;;;;;;4953205;29;20292;-66
2023/10/10 06:21:19;;;;;;;6.03;3.42;;;10.70;99.90;;;;;;4953149;29;20580;-67
2023/10/10 06:23:47;;;;;;;5.63;2.90;;;10.80;99.90;;;;;;4953082;29;20236;-69
2023/10/10 06:26:14;;;;;;;6.40;3.30;;;10.80;99.90;;;;;;4952711;29;20689;-71
2023/10/10 06:28:47;;;;;;;9.85;3.60;;;10.90;99.90;;;;;;4952953;29;20212;-70
2023/10/10 06:31:17;;;;;;;7.95;3.13;;;10.90;99.90;;;;;;4951972;29;20250;-70
2023/10/10 06:33:44;;;;;;;4.15;3.47;;;11.00;99.90;;;;;;4953523;29;20570;-69
2023/10/10 06:41:42;;;;;;;6.80;3.65;;;11.10;99.90;;;;;;4952796;29;20653;-68
2023/10/10 06:44:13;;;;;;;5.00;3.28;;;11.20;99.90;;;;;;4950853;29;20678;-71
2023/10/10 06:46:40;;;;;;;6.85;3.38;;;11.20;99.90;;;;;;4952338;29;20231;-66
2023/10/10 06:49:07;;;;;;;6.80;3.08;;;11.30;99.90;;;;;;4950591;29;20715;-69
2023/10/10 06:51:39;;;;;;;5.43;3.33;;;11.40;99.90;;;;;;4953266;29;20240;-66
2023/10/10 06:54:08;;;;;;;6.55;3.40;;;11.50;99.90;;;;;;4950113;29;20208;-66
2023/10/10 06:56:45;;;;;;;9.43;3.67;;;11.60;99.90;;;;;;4952458;28;20208;-67
2023/10/10 06:59:16;;;;;;;8.98;3.38;;;11.70;99.90;;;;;;4954842;29;20295;-70
2023/10/10 07:01:45;;;;;;;6.88;4.05;;;11.80;99.90;;;;;;4956337;29;20220;-71
2023/10/10 07:04:13;;;;;;;5.35;3.17;;;11.90;99.90;;;;;;4956518;29;20216;-69
2023/10/10 07:06:44;;;;;;;7.53;3.47;;;12.00;99.90;;;;;;4956040;29;20225;-71
2023/10/10 07:09:27;;;;;;;3.70;3.20;;;12.10;99.90;;;;;;4954528;29;20220;-71
2023/10/10 07:11:54;;;;;;;5.43;3.47;;;12.20;99.90;;;;;;4956257;29;20665;-71
2023/10/10 07:14:25;;;;;;;10.30;4.67;;;12.30;99.90;;;;;;4956065;29;20465;-69
2023/10/10 07:16:54;;;;;;;7.80;3.87;;;12.50;99.90;;;;;;4955761;29;21012;-71
2023/10/10 07:19:30;;;;;;;6.30;3.20;;;12.60;99.90;;;;;;4956576;29;20464;-72
2023/10/10 07:21:59;;;;;;;5.87;2.70;;;12.90;99.90;;;;;;4955919;29;20484;-72
2023/10/10 07:24:28;;;;;;;8.07;4.10;;;13.10;99.90;;;;;;4955886;28;20559;-71
2023/10/10 07:27:10;;;;;;;6.63;3.73;;;13.30;99.90;;;;;;4955665;29;20495;-71
2023/10/10 07:32:27;;;;;;;4.50;3.17;;;13.80;99.90;;;;;;4954321;29;21012;-71
2023/10/10 07:34:55;;;;;;;6.00;3.37;;;14.00;99.90;;;;;;4956765;29;20476;-67
2023/10/10 07:37:23;;;;;;;10.20;4.43;;;14.30;99.90;;;;;;4956170;29;20465;-67
2023/10/10 07:39:56;;;;;;;5.43;3.20;;;14.50;99.90;;;;;;4956759;29;20473;-66
2023/10/10 07:42:27;;;;;;;8.63;3.93;;;14.70;99.90;;;;;;4956515;29;20491;-70
2023/10/10 07:44:55;;;;;;;10.00;4.10;;;14.80;99.90;;;;;;4955630;28;20469;-69
2023/10/10 07:47:27;;;;;;;5.60;3.50;;;14.90;99.90;;;;;;4955453;28;20517;-70
2023/10/10 07:49:54;;;;;;;11.30;5.20;;;15.00;99.90;;;;;;4955784;28;20471;-71
2023/10/10 07:52:23;;;;;;;5.37;4.00;;;15.00;99.90;;;;;;4955812;29;20491;-68
2023/10/10 07:54:53;;;;;;;6.80;3.83;;;15.10;99.90;;;;;;4955377;29;20485;-71
2023/10/10 07:57:25;;;;;;;5.73;2.93;;;15.20;99.90;;;;;;4955264;29;21055;-70
2023/10/10 07:59:56;;;;;;;13.27;4.47;;;15.30;99.90;;;;;;4955463;29;20467;-70
2023/10/10 08:02:31;;;;;;;6.47;3.57;;;15.50;99.90;;;;;;4955688;28;20491;-70
2023/10/10 08:05:01;;;;;;;4.93;3.60;;;15.60;99.90;;;;;;4955203;29;20592;-70
2023/10/10 08:07:28;;;;;;;5.93;3.50;;;15.70;99.90;;;;;;4955350;29;20530;-70
2023/10/10 08:10:29;;;;;;;5.90;3.87;;;15.90;99.90;;;;;;4955217;28;20551;-71
2023/10/10 08:12:56;;;;;;;10.43;4.70;;;16.20;99.90;;;;;;4955387;29;20547;-67
2023/10/10 08:15:25;;;;;;;5.60;3.77;;;16.50;99.90;;;;;;4955081;28;20516;-71
2023/10/10 08:17:54;;;;;;;5.77;3.60;;;16.70;99.90;;;;;;4954963;29;20465;-71
2023/10/10 08:21:08;;;;;;;8.10;3.83;;;17.00;99.90;;;;;;4955295;29;20467;-72
2023/10/10 08:23:24;;;;;;;8.43;3.20;;;17.30;99.90;;;;;;4953580;29;20459;-71
2023/10/10 08:25:52;;;;;;;6.60;4.00;;;17.70;99.90;;;;;;4954481;29;20492;-71
2023/10/10 08:28:21;;;;;;;5.73;3.70;;;18.00;99.90;;;;;;4954985;29;20479;-68
2023/10/10 08:30:48;;;;;;;7.80;3.87;;;18.20;99.90;;;;;;4955127;28;20490;-71
2023/10/10 08:33:14;;;;;;;7.03;3.97;;;18.40;99.90;;;;;;4955095;29;20468;-67
2023/10/10 08:35:42;;;;;;;11.27;3.87;;;18.60;99.90;;;;;;4954619;28;20468;-70
2023/10/10 08:38:10;;;;;;;10.30;4.10;;;18.70;99.90;;;;;;4951624;29;20527;-67
2023/10/10 08:40:40;;;;;;;11.73;3.77;;;18.90;99.90;;;;;;4950946;29;20491;-70
2023/10/10 08:43:10;;;;;;;5.77;3.50;;;19.00;99.90;;;;;;4951141;29;20550;-70
2023/10/10 08:45:43;;;;;;;9.43;4.10;;;19.10;99.90;;;;;;4954356;29;20485;-68
2023/10/10 08:48:12;;;;;;;5.17;3.33;;;19.20;99.90;;;;;;4954865;28;20488;-67
2023/10/10 08:50:40;;;;;;;5.73;3.57;;;19.40;99.90;;;;;;4955113;29;20565;-69
2023/10/10 08:53:10;;;;;;;7.10;3.50;;;19.50;99.90;;;;;;4951149;29;20463;-67
2023/10/10 08:55:38;;;;;;;7.07;4.60;;;19.60;99.90;;;;;;4954416;29;20459;-67
2023/10/10 08:58:07;;;;;;;7.97;3.63;;;19.70;99.90;;;;;;4954620;29;20463;-68
2023/10/10 09:00:37;;;;;;;7.97;4.20;;;19.90;99.90;;;;;;4954651;29;20486;-67
2023/10/10 09:03:07;;;;;;;6.60;3.43;;;20.10;99.90;;;;;;4954597;29;20475;-67
2023/10/10 09:05:34;;;;;;;6.30;3.73;;;20.30;99.90;;;;;;4954258;28;20495;-67
2023/10/10 09:08:06;;;;;;;7.60;4.23;;;20.30;99.90;;;;;;4954198;29;20460;-68
2023/10/10 09:10:39;;;;;;;24.43;4.13;;;20.30;99.90;;;;;;4954303;29;20495;-70
2023/10/10 09:13:07;;;;;;;8.87;3.80;;;20.30;99.90;;;;;;4954164;29;20466;-69
2023/10/10 09:15:35;;;;;;;6.77;3.80;;;20.30;99.90;;;;;;4954045;29;20534;-69
2023/10/10 09:18:14;;;;;;;9.83;3.87;;;20.30;99.90;;;;;;4953959;29;20471;-71
2023/10/10 09:20:44;;;;;;;5.67;3.57;;;20.40;99.90;;;;;;4950080;28;20494;-68
2023/10/10 09:23:22;;;;;;;11.20;3.87;;;20.40;99.90;;;;;;4950687;29;20604;-67
2023/10/10 09:25:57;;;;;;;6.10;3.90;;;20.40;99.90;;;;;;4953619;29;20637;-67
2023/10/10 09:28:30;;;;;;;7.37;3.80;;;20.40;99.90;;;;;;4954108;29;20474;-67
2023/10/10 09:31:02;;;;;;;6.57;3.33;;;20.50;99.90;;;;;;4953731;29;20567;-67
2023/10/10 09:33:30;;;;;;;7.70;3.90;;;20.60;99.90;;;;;;4954206;29;20468;-67
2023/10/10 09:36:09;;;;;;;11.00;4.80;;;20.80;99.90;;;;;;4953487;29;20559;-67
2023/10/10 09:38:45;;;;;;;7.93;3.67;;;21.00;99.90;;;;;;4954225;29;20894;-67
2023/10/10 09:41:26;;;;;;;5.57;3.97;;;21.30;99.90;;;;;;4950682;29;20487;-67
2023/10/10 09:44:27;;;;;;;6.60;3.30;;;21.50;99.90;;;;;;4953670;28;20460;-67
2023/10/10 09:47:13;;;;;;;5.23;3.40;;;21.60;99.90;;;;;;4950715;29;20560;-67
2023/10/10 09:49:43;;;;;;;7.50;3.30;;;21.70;99.90;;;;;;4953566;29;20475;-66
2023/10/10 09:55:06;;;;;;;5.37;3.50;;;21.90;99.90;;;;;;4953792;29;21013;-68
2023/10/10 09:57:39;;;;;;;6.77;3.30;;;21.90;99.90;;;;;;4953513;29;20538;-68
2023/10/10 10:00:11;;;;;;;6.10;3.20;;;21.90;99.90;;;;;;4953893;29;20866;-67
2023/10/10 10:02:43;;;;;;;3.10;2.67;;;22.00;99.90;;;;;;4953739;28;20463;-67
2023/10/10 10:05:16;;;;;;;9.87;3.63;;;22.10;99.90;;;;;;4949061;29;20467;-67
2023/10/10 10:07:57;;;;;;;5.57;2.70;;;22.10;99.90;;;;;;4952741;29;20518;-67
2023/10/10 10:10:48;;;;;;;9.30;3.20;;;22.10;99.90;;;;;;4953352;29;20554;-67
2023/10/10 10:13:37;;;;;;;6.03;3.70;;;22.20;99.90;;;;;;4949471;29;20901;-67
2023/10/10 10:16:19;;;;;;;7.63;3.50;;;22.20;99.90;;;;;;4952770;29;20970;-67
2023/10/10 10:18:52;;;;;;;6.00;3.80;;;22.20;99.90;;;;;;4950400;29;20546;-70
2023/10/10 10:21:27;;;;;;;8.40;3.07;;;22.20;99.90;;;;;;4953200;29;20491;-71
2023/10/10 10:24:15;;;;;;;9.90;3.77;;;22.30;99.90;;;;;;4951278;29;20463;-68
2023/10/10 10:26:43;;;;;;;4.10;3.17;;;22.40;99.90;;;;;;4952345;29;20490;-67
2023/10/10 10:29:16;;;;;;;7.80;3.73;;;22.50;99.90;;;;;;4953094;29;20967;-71
2023/10/10 10:31:57;;;;;;;5.10;3.60;;;22.50;99.90;;;;;;4952448;28;20488;-69
2023/10/10 10:34:31;;;;;;;7.13;3.10;;;22.50;99.90;;;;;;4952946;29;20474;-71
2023/10/10 10:37:06;;;;;;;3.73;2.93;;;22.60;99.90;;;;;;4952689;29;20460;-72
2023/10/10 10:39:35;;;;;;;5.80;3.70;;;22.70;99.90;;;;;;4952785;29;20523;-71
2023/10/10 10:42:02;;;;;;;6.23;3.23;;;22.80;99.90;;;;;;4952850;29;20488;-70
2023/10/10 10:44:44;;;;;;;4.87;2.80;;;22.90;99.90;;;;;;4952670;28;20547;-72
2023/10/10 10:47:46;;;;;;;6.30;3.20;;;22.90;99.90;;;;;;4947703;29;20476;-71
2023/10/10 10:50:45;;;;;;;4.70;2.83;;;23.00;99.90;;;;;;4948266;29;20464;-71
2023/10/10 10:53:33;;;;;;;5.60;2.67;;;23.00;99.90;;;;;;4948072;29;20464;-68
2023/10/10 10:59:11;;;;;;;6.07;3.23;;;23.10;99.90;;;;;;4952445;28;20464;-68
2023/10/10 11:01:50;;;;;;;9.03;3.10;;;23.10;99.90;;;;;;4952403;29;20480;-69
2023/10/10 11:04:26;;;;;;;7.27;3.23;;;23.30;99.90;;;;;;4948381;29;20991;-68
2023/10/10 11:06:59;;;;;;;5.73;2.93;;;23.40;99.90;;;;;;4952188;28;21067;-70
2023/10/10 11:09:29;;;;;;;10.57;3.40;;;23.60;99.90;;;;;;4952617;29;20816;-69
2023/10/10 11:12:03;;;;;;;5.57;3.17;;;23.80;99.90;;;;;;4952453;29;20551;-70
2023/10/10 11:14:30;;;;;;;5.10;2.80;;;23.90;99.90;;;;;;4952422;29;20468;-70
2023/10/10 11:16:59;;;;;;;7.60;3.30;;;24.00;99.90;;;;;;4952109;29;20460;-69
2023/10/10 11:19:41;;;;;;;5.50;3.10;;;24.10;99.90;;;;;;4952454;29;20467;-69
2023/10/10 11:22:16;;;;;;;4.60;3.00;;;24.20;99.90;;;;;;4946868;29;20599;-69
2023/10/10 11:24:48;;;;;;;5.30;2.87;;;24.30;99.90;;;;;;4952117;29;20479;-70
2023/10/10 11:27:21;;;;;;;5.73;3.10;;;24.30;99.90;;;;;;4952141;29;20487;-70
2023/10/10 11:29:50;;;;;;;6.17;3.23;;;24.30;99.90;;;;;;4952243;29;20492;-69
2023/10/10 11:32:23;;;;;;;5.13;3.13;;;24.30;99.90;;;;;;4952406;29;20502;-69
2023/10/10 11:34:51;;;;;;;9.37;3.53;;;24.20;99.90;;;;;;4951901;29;20936;-69
2023/10/10 11:37:22;;;;;;;3.43;3.07;;;24.20;99.90;;;;;;4951996;29;20464;-69
2023/10/10 11:39:57;;;;;;;4.97;2.97;;;24.10;99.90;;;;;;4951958;28;20472;-69
2023/10/10 11:42:26;;;;;;;6.93;3.23;;;24.10;99.90;;;;;;4952412;29;20489;-68
2023/10/10 11:44:54;;;;;;;5.93;2.90;;;24.10;99.90;;;;;;4952195;28;20467;-69
2023/10/10 11:47:24;;;;;;;8.13;3.77;;;24.20;99.90;;;;;;4955439;29;20575;-71
2023/10/10 11:50:00;;;;;;;7.53;3.20;;;24.20;99.90;;;;;;4955477;29;20540;-68
2023/10/10 11:52:28;;;;;;;5.10;3.40;;;24.10;99.90;;;;;;4955866;29;20917;-68
2023/10/10 11:54:58;;;;;;;5.30;3.20;;;24.10;99.90;;;;;;4955484;29;20463;-68
2023/10/10 11:57:28;;;;;;;3.20;2.60;;;24.30;99.90;;;;;;4958442;29;20463;-67
2023/10/10 11:59:55;;;;;;;10.10;3.70;;;24.40;99.90;;;;;;4955728;29;20965;-67
2023/10/10 12:02:29;;;;;;;5.20;3.07;;;24.40;99.90;;;;;;4955556;29;20483;-68
2023/10/10 12:04:56;;;;;;;6.57;3.27;;;24.50;99.90;;;;;;4953982;29;20464;-71
2023/10/10 12:07:26;;;;;;;4.73;3.00;;;24.50;99.90;;;;;;4955129;29;20491;-70
2023/10/10 12:10:07;;;;;;;6.60;3.33;;;24.50;99.90;;;;;;4954887;29;20527;-70
2023/10/10 12:12:34;;;;;;;7.60;3.20;;;24.60;99.90;;;;;;4955221;29;20484;-69
2023/10/10 12:15:00;;;;;;;4.57;3.50;;;24.50;99.90;;;;;;4954306;28;20471;-70
2023/10/10 12:17:28;;;;;;;5.97;3.10;;;24.40;99.90;;;;;;4954933;29;20839;-70
2023/10/10 12:19:56;;;;;;;6.07;3.20;;;24.40;99.90;;;;;;4955117;29;20475;-68
2023/10/10 12:22:24;;;;;;;3.90;2.93;;;24.30;99.90;;;;;;4955238;28;20484;-71
2023/10/10 12:24:51;;;;;;;5.87;3.50;;;24.30;99.90;;;;;;4954435;29;20459;-70
2023/10/10 12:27:19;;;;;;;5.53;3.60;;;24.30;99.90;;;;;;4954691;28;20908;-70
2023/10/10 12:29:47;;;;;;;5.27;3.53;;;24.30;99.90;;;;;;4954733;29;20545;-71
2023/10/10 12:32:18;;;;;;;4.50;3.37;;;24.30;99.90;;;;;;4955020;29;21015;-70
2023/10/10 12:34:46;;;;;;;7.00;3.60;;;24.20;99.90;;;;;;4954883;29;20460;-70
2023/10/10 12:37:15;;;;;;;6.73;3.30;;;24.20;99.90;;;;;;4954634;29;20464;-69
2023/10/10 12:39:42;;;;;;;8.50;3.30;;;24.20;99.90;;;;;;4954573;29;20500;-66
2023/10/10 12:42:09;;;;;;;6.87;3.57;;;24.10;99.90;;;;;;4954933;29;20476;-70
2023/10/10 12:44:37;;;;;;;7.67;3.13;;;24.10;99.90;;;;;;4954787;29;20472;-69
2023/10/10 12:47:07;;;;;;;9.60;3.37;;;24.00;99.90;;;;;;4954399;28;20488;-68
2023/10/10 12:49:36;;;;;;;3.60;3.10;;;24.00;99.90;;;;;;4954894;29;20494;-71
2023/10/10 12:52:11;;;;;;;6.47;4.73;;;24.00;99.90;;;;;;4954376;28;20491;-71
2023/10/10 12:54:37;;;;;;;5.10;3.17;;;24.00;99.90;;;;;;4954372;28;20468;-71
2023/10/10 12:57:13;;;;;;;6.50;3.83;;;24.00;99.90;;;;;;4953822;29;20929;-69
2023/10/10 12:59:46;;;;;;;8.80;3.30;;;23.90;99.90;;;;;;4954176;29;20470;-71
2023/10/10 13:02:16;;;;;;;7.20;3.53;;;24.00;99.90;;;;;;4948251;29;20488;-69
2023/10/10 13:04:46;;;;;;;4.30;3.03;;;24.00;99.90;;;;;;4954084;29;20480;-69
2023/10/10 13:07:16;;;;;;;7.20;3.47;;;23.90;99.90;;;;;;4953843;29;20492;-67
2023/10/10 13:09:46;;;;;;;4.80;3.13;;;23.90;99.90;;;;;;4954096;29;20475;-70
2023/10/10 13:12:26;;;;;;;4.87;3.10;;;24.00;99.90;;;;;;4954514;29;20507;-71
2023/10/10 13:15:06;;;;;;;4.00;3.60;;;24.00;99.90;;;;;;4953769;29;20463;-71
2023/10/10 13:17:49;;;;;;;8.50;2.87;;;24.00;99.90;;;;;;4954218;29;20456;-71
2023/10/10 13:20:17;;;;;;;4.60;2.90;;;24.00;99.90;;;;;;4954356;28;20460;-71
2023/10/10 13:22:46;;;;;;;8.63;3.87;;;24.00;99.90;;;;;;4953773;29;20456;-71
2023/10/10 13:25:14;;;;;;;7.40;3.40;;;24.00;99.90;;;;;;4949208;29;20467;-71
2023/10/10 13:27:41;;;;;;;5.30;3.33;;;24.00;99.90;;;;;;4953469;29;20495;-67
2023/10/10 13:30:10;;;;;;;3.33;2.47;;;24.00;99.90;;;;;;4946705;29;20471;-67
2023/10/10 13:32:37;;;;;;;8.13;3.47;;;24.00;99.90;;;;;;4953890;29;20484;-67
2023/10/10 13:35:05;;;;;;;5.17;3.63;;;23.90;99.90;;;;;;4953361;29;20969;-66
2023/10/10 13:37:32;;;;;;;5.63;3.17;;;23.90;99.90;;;;;;4953327;29;20460;-66
2023/10/10 13:39:59;;;;;;;7.10;2.93;;;23.80;99.90;;;;;;4953371;29;20471;-66
2023/10/10 13:42:26;;;;;;;5.00;2.60;;;23.70;99.90;;;;;;4953857;28;20825;-67
2023/10/10 13:45:01;;;;;;;4.00;3.40;;;23.70;99.90;;;;;;4953261;29;20475;-66
2023/10/10 13:47:29;;;;;;;9.53;3.17;;;23.60;99.90;;;;;;4953081;29;20490;-67
2023/10/10 13:50:28;;;;;;;6.40;3.07;;;23.50;99.90;;;;;;4953246;29;20468;-67
2023/10/10 13:52:42;;;;;;;6.27;3.03;;;23.50;99.90;;;;;;4953020;29;20493;-66
2023/10/10 13:55:10;;;;;;;7.13;3.37;;;23.40;99.90;;;;;;4953289;29;20470;-66
2023/10/10 13:57:37;;;;;;;7.10;3.10;;;23.40;99.90;;;;;;4953052;28;21020;-66
2023/10/10 14:00:19;;;;;;;5.70;3.17;;;23.40;99.90;;;;;;4953047;29;20476;-66
2023/10/10 14:02:47;;;;;;;4.37;2.80;;;23.40;99.90;;;;;;4953194;28;20468;-66
2023/10/10 14:05:19;;;;;;;4.73;2.93;;;23.40;99.90;;;;;;4953090;29;21004;-66
2023/10/10 14:07:46;;;;;;;6.80;3.37;;;23.40;99.90;;;;;;4952421;28;20503;-66
2023/10/10 14:10:13;;;;;;;5.10;3.23;;;23.40;99.90;;;;;;4953247;29;20953;-66
2023/10/10 14:12:44;;;;;;;4.27;3.00;;;23.40;99.90;;;;;;4953362;29;20468;-66
2023/10/10 14:15:11;;;;;;;7.13;3.40;;;23.40;99.90;;;;;;4953141;29;20474;-66
2023/10/10 14:17:38;;;;;;;4.73;2.87;;;23.40;99.90;;;;;;4952909;29;20464;-66
2023/10/10 14:20:19;;;;;;;5.90;3.53;;;23.30;99.90;;;;;;4952737;29;20475;-65
2023/10/10 14:22:46;;;;;;;5.90;3.57;;;23.30;99.90;;;;;;4953054;28;20535;-66
2023/10/10 14:25:14;;;;;;;6.27;3.13;;;23.20;99.90;;;;;;4952879;29;20460;-64
2023/10/10 14:27:43;;;;;;;5.50;3.70;;;23.20;99.90;;;;;;4952913;29;20503;-66
2023/10/10 14:30:21;;;;;;;6.50;3.80;;;23.10;99.90;;;;;;4953063;29;20999;-66
2023/10/10 14:32:53;;;;;;;7.13;3.13;;;23.00;99.90;;;;;;4952777;29;20514;-66
2023/10/10 14:35:23;;;;;;;9.40;3.60;;;22.90;99.90;;;;;;4952879;29;20467;-66
2023/10/10 14:37:56;;;;;;;4.60;3.40;;;22.80;99.90;;;;;;4952355;29;20507;-65
2023/10/10 14:40:23;;;;;;;7.20;3.70;;;22.80;99.90;;;;;;4952892;29;20468;-66
2023/10/10 14:42:52;;;;;;;5.30;3.67;;;22.70;99.90;;;;;;4952479;29;20878;-66
2023/10/10 14:45:19;;;;;;;13.63;4.43;;;22.80;99.90;;;;;;4952976;29;20456;-66
2023/10/10 14:47:46;;;;;;;6.80;3.57;;;22.80;99.90;;;;;;4952599;29;20503;-66
2023/10/10 14:50:13;;;;;;;7.13;3.90;;;22.80;99.90;;;;;;4953184;29;20556;-65
2023/10/10 14:52:47;;;;;;;8.50;4.50;;;22.80;99.90;;;;;;4953058;28;20464;-66
2023/10/10 14:55:23;;;;;;;6.57;4.10;;;22.80;99.90;;;;;;4945909;29;20463;-66
2023/10/10 14:57:54;;;;;;;5.73;3.33;;;22.80;99.90;;;;;;4952137;29;20869;-66
2023/10/10 15:00:22;;;;;;;6.07;3.70;;;22.80;99.90;;;;;;4952622;29;20976;-65
2023/10/10 15:02:53;;;;;;;7.77;4.03;;;22.70;99.90;;;;;;4952425;29;20898;-66
2023/10/10 15:05:23;;;;;;;4.90;3.70;;;22.70;99.90;;;;;;4952656;29;20539;-66
2023/10/10 15:07:52;;;;;;;6.73;3.83;;;22.70;99.90;;;;;;4951863;29;20907;-66
2023/10/10 15:10:25;;;;;;;4.53;3.10;;;22.60;99.90;;;;;;4952762;29;20463;-66
2023/10/10 15:12:52;;;;;;;7.70;3.80;;;22.60;99.90;;;;;;4952002;29;20490;-66
2023/10/10 15:15:19;;;;;;;5.07;3.97;;;22.50;99.90;;;;;;4952438;29;20460;-66
2023/10/10 15:17:46;;;;;;;7.30;3.77;;;22.40;99.90;;;;;;4952221;29;20460;-66
2023/10/10 15:20:13;;;;;;;8.83;4.60;;;22.30;99.90;;;;;;4955984;29;20467;-66
2023/10/10 15:22:41;;;;;;;5.53;3.60;;;22.30;99.90;;;;;;4956194;29;20460;-66
2023/10/10 15:25:10;;;;;;;6.53;4.00;;;22.20;99.90;;;;;;4954990;29;21024;-65
2023/10/10 15:27:41;;;;;;;8.27;3.83;;;22.10;99.90;;;;;;4955795;28;20488;-66
2023/10/10 15:30:09;;;;;;;7.43;4.57;;;22.00;99.90;;;;;;4955028;29;20558;-66
2023/10/10 15:32:43;;;;;;;6.07;3.47;;;22.00;99.90;;;;;;4955924;29;21000;-66
2023/10/10 15:35:11;;;;;;;10.63;4.50;;;21.90;99.90;;;;;;4954983;29;20472;-66
2023/10/10 15:37:42;;;;;;;6.40;3.53;;;21.80;99.90;;;;;;4955583;29;20470;-66
2023/10/10 15:40:20;;;;;;;5.47;3.47;;;21.70;99.90;;;;;;4954828;29;20460;-65
2023/10/10 15:42:48;;;;;;;4.70;3.30;;;21.60;99.90;;;;;;4956023;29;20768;-65
2023/10/10 15:45:20;;;;;;;4.40;3.37;;;21.50;99.90;;;;;;4955358;29;20474;-66
2023/10/10 15:47:48;;;;;;;9.03;4.10;;;21.40;99.90;;;;;;4951802;29;20492;-65
2023/10/10 15:50:16;;;;;;;11.40;4.00;;;21.30;99.90;;;;;;4954590;28;20475;-66
2023/10/10 15:52:48;;;;;;;4.00;3.20;;;21.10;99.90;;;;;;4955249;29;20503;-65
2023/10/10 15:55:19;;;;;;;6.70;3.50;;;21.00;99.90;;;;;;4954527;29;20475;-65
2023/10/10 15:57:46;;;;;;;7.60;3.60;;;20.80;99.90;;;;;;4954882;29;20479;-66
2023/10/10 16:00:15;;;;;;;5.30;4.13;;;20.60;99.90;;;;;;4954717;28;20480;-65
2023/10/10 16:02:42;;;;;;;7.97;3.87;;;20.50;99.90;;;;;;4954807;28;20476;-65
2023/10/10 16:05:09;;;;;;;7.13;3.70;;;20.30;99.90;;;;;;4954531;29;20499;-65
2023/10/10 16:07:36;;;;;;;8.80;3.93;;;20.20;99.90;;;;;;4954364;29;20464;-66
2023/10/10 16:10:07;;;;;;;6.07;3.70;;;20.00;99.90;;;;;;4954694;29;20472;-65
2023/10/10 16:12:35;;;;;;;7.73;3.70;;;19.90;99.90;;;;;;4954286;29;20495;-66
2023/10/10 16:15:02;;;;;;;7.30;4.40;;;19.70;99.90;;;;;;4953951;29;20476;-65
2023/10/10 16:17:29;;;;;;;8.57;4.50;;;19.60;99.90;;;;;;4953928;29;20556;-66
2023/10/10 16:19:55;;;;;;;5.80;3.70;;;19.40;99.90;;;;;;4954844;29;20460;-65
2023/10/10 16:22:22;;;;;;;6.07;3.40;;;19.30;99.90;;;;;;4954650;29;20495;-65
2023/10/10 16:24:52;;;;;;;13.53;4.43;;;19.10;99.90;;;;;;4954167;29;20480;-65
2023/10/10 16:27:21;;;;;;;8.70;4.43;;;19.00;99.90;;;;;;4954008;29;20476;-65
2023/10/10 16:29:55;;;;;;;6.97;5.20;;;18.80;99.90;;;;;;4953764;28;20574;-65
2023/10/10 16:32:22;;;;;;;6.83;3.77;;;18.70;99.90;;;;;;4948344;29;20801;-65
2023/10/10 16:34:48;;;;;;;6.63;4.67;;;18.60;99.90;;;;;;4954349;29;20471;-66
2023/10/10 16:37:18;;;;;;;5.37;3.50;;;18.50;99.90;;;;;;4953694;29;20475;-65
2023/10/10 16:39:45;;;;;;;4.60;3.17;;;18.40;99.90;;;;;;4954010;29;20984;-65
2023/10/10 16:42:12;;;;;;;5.50;3.60;;;18.20;99.90;;;;;;4953865;29;20491;-66
2023/10/10 16:44:39;;;;;;;7.73;4.33;;;18.10;99.90;;;;;;4954309;29;20470;-66
2023/10/10 16:47:08;;;;;;;6.37;3.93;;;18.00;99.90;;;;;;4953740;29;20837;-65
2023/10/10 16:49:36;;;;;;;6.87;4.30;;;17.90;99.90;;;;;;4954165;29;21063;-66
2023/10/10 16:52:05;;;;;;;8.47;3.77;;;17.80;99.90;;;;;;4952960;29;20500;-65
2023/10/10 16:54:34;;;;;;;6.10;4.33;;;17.70;99.90;;;;;;4953721;28;20479;-65
2023/10/10 16:57:01;;;;;;;9.07;3.93;;;17.60;99.90;;;;;;4952633;29;20476;-65
2023/10/10 16:59:30;;;;;;;6.63;4.30;;;17.50;99.90;;;;;;4954195;29;20474;-65
2023/10/10 17:01:57;;;;;;;5.77;3.93;;;17.40;99.90;;;;;;4954348;29;20487;-66
2023/10/10 17:04:25;;;;;;;7.00;4.17;;;17.30;99.90;;;;;;4954575;29;20469;-66
2023/10/10 17:06:51;;;;;;;8.57;4.17;;;17.20;99.90;;;;;;4954093;29;20498;-66
2023/10/10 17:09:18;;;;;;;4.90;3.77;;;17.10;99.90;;;;;;4953308;29;20496;-65
2023/10/10 17:11:50;;;;;;;7.47;4.83;;;17.00;99.90;;;;;;4954281;29;20997;-65
2023/10/10 17:14:18;;;;;;;6.53;3.73;;;16.90;99.90;;;;;;4954075;29;20956;-66
2023/10/10 17:16:45;;;;;;;10.90;6.77;;;16.80;99.90;;;;;;4953805;28;20468;-65
2023/10/10 17:19:12;;;;;;;7.30;5.00;;;16.70;99.90;;;;;;4953988;29;20460;-65
2023/10/10 17:21:40;;;;;;;8.07;4.67;;;16.60;99.90;;;;;;4954344;29;20728;-65
2023/10/10 17:24:07;;;;;;;8.93;4.67;;;16.50;99.90;;;;;;4951344;29;20464;-65
2023/10/10 17:26:34;;;;;;;8.60;5.40;;;16.40;99.90;;;;;;4953885;29;20564;-65
2023/10/10 17:29:01;;;;;;;7.77;5.57;;;16.40;99.90;;;;;;4953704;29;20884;-65
2023/10/10 17:31:28;;;;;;;7.43;5.10;;;16.30;99.90;;;;;;4953294;29;20491;-65
2023/10/10 17:33:56;;;;;;;9.67;5.27;;;16.20;99.90;;;;;;4953814;29;20495;-65
2023/10/10 17:36:26;;;;;;;8.40;4.03;;;16.20;99.90;;;;;;4953293;29;20954;-65
2023/10/10 17:38:54;;;;;;;7.37;4.93;;;16.10;99.90;;;;;;4954048;29;20520;-65
2023/10/10 17:41:23;;;;;;;7.27;4.93;;;16.00;99.90;;;;;;4953421;28;20500;-66
2023/10/10 17:43:51;;;;;;;7.13;4.47;;;15.90;99.90;;;;;;4953239;29;20483;-65
2023/10/10 17:46:20;;;;;;;9.87;6.27;;;15.90;99.90;;;;;;4953068;29;20471;-66
2023/10/10 17:48:53;;;;;;;9.57;6.83;;;15.80;99.90;;;;;;4953477;29;20488;-67
2023/10/10 17:51:20;;;;;;;12.63;6.20;;;15.80;99.90;;;;;;4953277;29;20484;-66
2023/10/10 17:53:47;;;;;;;7.20;5.70;;;15.70;99.90;;;;;;4953304;29;20983;-66
2023/10/10 17:56:15;;;;;;;8.80;5.60;;;15.60;99.90;;;;;;4952904;29;20823;-67
2023/10/10 17:58:43;;;;;;;8.77;5.50;;;15.60;99.90;;;;;;4953700;29;20468;-67
2023/10/10 18:01:10;;;;;;;9.83;6.73;;;15.50;99.90;;;;;;4950618;29;20544;-66
2023/10/10 18:03:37;;;;;;;10.13;6.03;;;15.50;99.90;;;;;;4953585;29;20463;-66
2023/10/10 18:06:04;;;;;;;7.90;5.13;;;15.40;99.90;;;;;;4953094;29;20468;-66
2023/10/10 18:08:31;;;;;;;8.20;5.23;;;15.40;99.90;;;;;;4953083;28;20483;-66
2023/10/10 18:11:07;;;;;;;7.77;4.77;;;15.30;99.90;;;;;;4953165;29;20488;-66
2023/10/10 18:13:35;;;;;;;10.23;6.37;;;15.30;99.90;;;;;;4953163;29;20479;-66
2023/10/10 18:16:09;;;;;;;13.03;7.40;;;15.20;99.90;;;;;;4952793;29;20846;-65
2023/10/10 18:18:36;;;;;;;9.20;5.80;;;15.20;99.90;;;;;;4953351;29;20457;-67
2023/10/10 18:21:07;;;;;;;11.53;5.90;;;15.10;99.90;;;;;;4953140;29;20490;-66
2023/10/10 18:23:33;;;;;;;12.80;7.70;;;15.10;99.90;;;;;;4953161;29;20486;-67
2023/10/10 18:26:03;;;;;;;12.40;7.00;;;15.00;99.90;;;;;;4952634;29;20475;-67
2023/10/10 18:28:30;;;;;;;14.70;8.23;;;15.00;99.90;;;;;;4952741;28;20546;-66
2023/10/10 18:30:58;;;;;;;12.03;9.40;;;15.00;99.90;;;;;;4953034;29;20486;-67